createdAt,value
2022-11-26T00:01:31.093Z,7.61
2022-11-26T00:06:44.980Z,7.60
2022-11-26T00:11:46.868Z,7.58
2022-11-26T00:16:48.661Z,7.58
2022-11-26T00:21:50.649Z,7.58
2022-11-26T00:26:52.896Z,7.59
2022-11-26T00:31:54.778Z,7.57
2022-11-26T00:36:56.622Z,7.58
2022-11-26T00:41:58.558Z,7.58
2022-11-26T00:47:00.557Z,7.56
2022-11-26T00:52:02.669Z,7.57
2022-11-26T00:57:04.570Z,7.58
2022-11-26T01:02:06.522Z,7.58
2022-11-26T01:07:10.717Z,7.60
2022-11-26T01:12:15.599Z,7.61
2022-11-26T01:17:17.380Z,7.62
2022-11-26T01:22:24.008Z,7.63
2022-11-26T01:27:25.810Z,7.62
2022-11-26T01:32:29.536Z,7.63
2022-11-26T01:37:31.784Z,7.63
2022-11-26T01:42:46.963Z,7.63
2022-11-26T01:47:50.011Z,7.61
2022-11-26T01:52:52.819Z,7.61
2022-11-26T01:57:54.666Z,7.62
2022-11-26T02:02:56.739Z,7.62
2022-11-26T02:08:00.405Z,7.62
2022-11-26T02:13:02.449Z,7.63
2022-11-26T02:18:08.167Z,7.64
2022-11-26T02:23:31.141Z,7.66
2022-11-26T02:28:57.043Z,7.65
2022-11-26T02:34:15.150Z,7.64
2022-11-26T02:39:23.160Z,7.63
2022-11-26T02:44:45.395Z,7.64
2022-11-26T02:49:50.773Z,7.63
2022-11-26T02:54:54.320Z,7.62
2022-11-26T02:59:56.733Z,7.62
2022-11-26T03:05:01.754Z,7.61
2022-11-26T03:10:04.739Z,7.61
2022-11-26T03:15:07.666Z,7.58
2022-11-26T03:20:10.150Z,7.58
2022-11-26T03:25:12.551Z,7.57
2022-11-26T03:30:14.977Z,7.56
2022-11-26T03:35:16.727Z,7.55
2022-11-26T03:40:19.060Z,7.56
2022-11-26T03:45:23.945Z,7.54
2022-11-26T03:50:25.743Z,7.56
2022-11-26T03:55:27.648Z,7.55
2022-11-26T04:00:29.878Z,7.54
2022-11-26T04:05:32.188Z,7.53
2022-11-26T04:10:34.257Z,7.53
2022-11-26T04:15:36.093Z,7.55
2022-11-26T04:20:38.103Z,7.58
2022-11-26T04:25:39.843Z,7.57
2022-11-26T04:30:42.498Z,7.57
2022-11-26T04:35:44.510Z,7.58
2022-11-26T04:40:48.172Z,7.58
2022-11-26T04:45:49.915Z,7.57
2022-11-26T04:50:51.959Z,7.58
2022-11-26T04:55:53.692Z,7.57
2022-11-26T05:00:55.456Z,7.57
2022-11-26T05:05:57.319Z,7.58
2022-11-26T05:11:01.600Z,7.58
2022-11-26T05:16:03.690Z,7.58
2022-11-26T05:21:07.207Z,7.58
2022-11-26T05:26:08.986Z,7.58
2022-11-26T05:31:12.164Z,7.59
2022-11-26T05:36:14.011Z,7.60
2022-11-26T05:41:15.990Z,7.61
2022-11-26T05:46:18.833Z,7.61
2022-11-26T05:51:20.647Z,7.60
2022-11-26T05:56:22.681Z,7.61
2022-11-26T06:01:24.907Z,7.63
2022-11-26T06:06:26.830Z,7.63
2022-11-26T06:11:28.673Z,7.63
2022-11-26T06:16:30.747Z,7.62
2022-11-26T06:21:32.629Z,7.62
2022-11-26T06:26:34.525Z,7.63
2022-11-26T06:31:36.546Z,7.62
2022-11-26T06:36:38.640Z,7.60
2022-11-26T06:41:40.710Z,7.61
2022-11-26T06:46:42.737Z,7.60
2022-11-26T06:51:44.681Z,7.60
2022-11-26T06:56:46.764Z,7.61
2022-11-26T07:01:48.693Z,7.62
2022-11-26T07:06:50.612Z,7.60
2022-11-26T07:11:52.597Z,7.60
2022-11-26T07:16:54.468Z,7.62
2022-11-26T07:21:56.283Z,7.63
2022-11-26T07:26:58.250Z,7.66
2022-11-26T07:32:00.499Z,7.66
2022-11-26T07:37:02.559Z,7.67
2022-11-26T07:42:07.159Z,7.68
2022-11-26T07:47:09.084Z,7.67
2022-11-26T07:52:11.025Z,7.66
2022-11-26T07:57:12.833Z,7.68
2022-11-26T08:02:16.113Z,7.69
2022-11-26T08:07:25.872Z,7.69
2022-11-26T08:12:31.205Z,7.72
2022-11-26T08:17:32.968Z,7.76
2022-11-26T08:22:35.066Z,7.78
2022-11-26T08:27:36.904Z,7.80
2022-11-26T08:32:38.715Z,7.83
2022-11-26T08:37:42.553Z,7.83
2022-11-26T08:42:44.789Z,7.86
2022-11-26T08:47:46.674Z,7.87
2022-11-26T08:52:48.602Z,7.95
2022-11-26T08:57:50.501Z,8.06
2022-11-26T09:02:52.468Z,8.12
2022-11-26T09:07:55.142Z,8.09
2022-11-26T09:12:57.192Z,8.14
2022-11-26T09:17:58.978Z,8.20
2022-11-26T09:23:00.774Z,8.30
2022-11-26T09:28:02.598Z,8.36
2022-11-26T09:33:04.528Z,8.43
2022-11-26T09:38:06.588Z,8.47
2022-11-26T09:43:20.269Z,8.43
2022-11-26T09:48:26.318Z,8.46
2022-11-26T09:53:33.320Z,8.54
2022-11-26T09:58:48.822Z,8.58
2022-11-26T10:03:52.240Z,8.56
2022-11-26T10:09:15.230Z,8.54
2022-11-26T10:14:26.125Z,8.54
2022-11-26T10:19:42.537Z,8.56
2022-11-26T10:24:44.773Z,8.55
2022-11-26T10:29:52.194Z,8.59
2022-11-26T10:34:56.406Z,8.57
2022-11-26T10:40:11.485Z,8.56
2022-11-26T10:45:21.007Z,8.58
2022-11-26T10:50:47.116Z,8.59
2022-11-26T10:55:47.585Z,8.57
2022-11-26T11:00:49.506Z,8.55
2022-11-26T11:05:52.340Z,8.53
2022-11-26T11:10:57.572Z,8.52
2022-11-26T11:16:02.742Z,8.52
2022-11-26T11:21:06.611Z,8.52
2022-11-26T11:26:18.197Z,8.50
2022-11-26T11:31:22.991Z,8.47
2022-11-26T11:36:29.292Z,8.47
2022-11-26T11:41:36.659Z,8.48
2022-11-26T11:47:10.823Z,8.52
2022-11-26T11:52:45.764Z,8.55
2022-11-26T11:57:58.072Z,8.60
2022-11-26T12:03:11.744Z,8.64
2022-11-26T12:08:22.939Z,8.63
2022-11-26T12:13:28.320Z,8.62
2022-11-26T12:18:54.118Z,8.63
2022-11-26T12:23:55.984Z,8.63
2022-11-26T12:29:14.331Z,8.62
2022-11-26T12:34:18.966Z,8.63
2022-11-26T12:39:51.921Z,8.65
2022-11-26T12:45:03.094Z,8.68
2022-11-26T12:50:10.930Z,8.66
2022-11-26T12:55:18.940Z,8.62
2022-11-26T13:00:26.088Z,8.59
2022-11-26T13:05:58.361Z,8.58
2022-11-26T13:11:15.224Z,8.62
2022-11-26T13:16:49.467Z,8.67
2022-11-26T13:22:11.043Z,8.68
2022-11-26T13:27:30.099Z,8.69
2022-11-26T13:32:37.639Z,8.66
2022-11-26T13:37:51.388Z,8.64
2022-11-26T13:42:56.243Z,8.63
2022-11-26T13:48:06.366Z,8.62
2022-11-26T13:53:31.779Z,8.63
2022-11-26T13:58:48.103Z,8.62
2022-11-26T14:03:50.624Z,8.60
2022-11-26T14:08:54.029Z,8.59
2022-11-26T14:14:24.862Z,8.61
2022-11-26T14:19:42.402Z,8.57
2022-11-26T14:24:50.195Z,8.56
2022-11-26T14:30:06.098Z,8.55
2022-11-26T14:35:20.945Z,8.53
2022-11-26T14:40:33.221Z,8.52
2022-11-26T14:45:35.952Z,8.48
2022-11-26T14:50:38.229Z,8.43
2022-11-26T14:55:40.053Z,8.39
2022-11-26T15:00:42.116Z,8.31
2022-11-26T15:05:45.323Z,8.25
2022-11-26T15:10:54.521Z,8.18
2022-11-26T15:15:59.250Z,8.07
2022-11-26T15:21:04.002Z,7.95
2022-11-26T15:26:06.448Z,7.86
2022-11-26T15:31:10.145Z,7.77
2022-11-26T15:36:17.431Z,7.69
2022-11-26T15:41:20.183Z,7.62
2022-11-26T15:46:34.958Z,7.58
2022-11-26T15:51:52.023Z,7.56
2022-11-26T15:57:05.060Z,7.54
2022-11-26T16:02:21.901Z,7.52
2022-11-26T16:07:27.939Z,7.51
2022-11-26T16:12:32.850Z,7.51
2022-11-26T16:17:35.186Z,7.51
2022-11-26T16:22:36.967Z,7.54
2022-11-26T16:27:38.907Z,7.57
2022-11-26T16:32:40.752Z,7.61
2022-11-26T16:37:48.153Z,7.66
2022-11-26T16:42:51.203Z,7.69
2022-11-26T16:47:55.863Z,7.71
2022-11-26T16:52:57.738Z,7.73
2022-11-26T16:58:02.448Z,7.75
2022-11-26T17:03:04.396Z,7.75
2022-11-26T17:08:10.222Z,7.76
2022-11-26T17:13:12.484Z,7.76
2022-11-26T17:18:23.080Z,7.74
2022-11-26T17:23:25.136Z,7.74
2022-11-26T17:28:28.177Z,7.72
2022-11-26T17:33:30.070Z,7.73
2022-11-26T17:38:32.357Z,7.74
2022-11-26T17:43:35.749Z,7.76
2022-11-26T17:48:48.957Z,7.77
2022-11-26T17:53:55.340Z,7.76
2022-11-26T17:59:01.445Z,7.76
2022-11-26T18:04:06.780Z,7.75
2022-11-26T18:09:12.003Z,7.77
2022-11-26T18:14:17.318Z,7.78
2022-11-26T18:19:22.221Z,7.76
2022-11-26T18:24:24.136Z,7.75
2022-11-26T18:29:27.714Z,7.77
2022-11-26T18:34:29.595Z,7.76
2022-11-26T18:39:31.529Z,7.73
2022-11-26T18:44:33.463Z,7.73
2022-11-26T18:49:35.267Z,7.71
2022-11-26T18:54:37.003Z,7.71
2022-11-26T18:59:39.007Z,7.70
2022-11-26T19:04:41.365Z,7.71
2022-11-26T19:09:43.486Z,7.70
2022-11-26T19:14:45.420Z,7.69
2022-11-26T19:19:47.996Z,7.62
2022-11-26T19:24:49.824Z,7.58
2022-11-26T19:29:51.643Z,7.52
2022-11-26T19:34:54.277Z,7.47
2022-11-26T19:39:56.048Z,7.47
2022-11-26T19:44:57.778Z,7.48
2022-11-26T19:49:59.503Z,7.47
2022-11-26T19:55:01.341Z,7.46
2022-11-26T20:00:06.659Z,7.45
2022-11-26T20:05:09.019Z,7.46
2022-11-26T20:10:11.367Z,7.46
2022-11-26T20:15:13.215Z,7.45
2022-11-26T20:20:15.196Z,7.43
2022-11-26T20:25:17.152Z,7.39
2022-11-26T20:30:20.371Z,7.36
2022-11-26T20:35:23.490Z,7.32
2022-11-26T20:40:25.381Z,7.30
2022-11-26T20:45:27.364Z,7.25
2022-11-26T20:50:29.684Z,7.21
2022-11-26T20:55:31.577Z,7.16
2022-11-26T21:00:33.442Z,7.13
2022-11-26T21:05:35.206Z,7.08
2022-11-26T21:10:39.532Z,7.00
2022-11-26T21:15:43.176Z,6.94
2022-11-26T21:20:45.007Z,6.87
2022-11-26T21:25:47.305Z,6.84
2022-11-26T21:30:49.206Z,6.80
2022-11-26T21:35:51.207Z,6.77
2022-11-26T21:40:53.058Z,6.77
2022-11-26T21:45:54.840Z,6.76
2022-11-26T21:51:02.837Z,6.78
2022-11-26T21:56:26.022Z,6.81
2022-11-26T22:01:30.339Z,6.81
2022-11-26T22:06:32.209Z,6.82
2022-11-26T22:11:37.247Z,6.81
2022-11-26T22:16:39.134Z,6.79
2022-11-26T22:21:42.073Z,6.75
2022-11-26T22:26:45.093Z,6.70
2022-11-26T22:31:48.530Z,6.67
2022-11-26T22:36:51.030Z,6.64
2022-11-26T22:41:52.951Z,6.64
2022-11-26T22:46:54.749Z,6.65
2022-11-26T22:51:56.490Z,6.64
2022-11-26T22:56:58.347Z,6.65
2022-11-26T23:02:00.339Z,6.65
2022-11-26T23:07:02.201Z,6.66
2022-11-26T23:12:04.256Z,6.67
2022-11-26T23:17:06.090Z,6.70
2022-11-26T23:22:08.012Z,6.74
2022-11-26T23:27:09.824Z,6.78
2022-11-26T23:32:11.643Z,6.81
2022-11-26T23:37:13.390Z,6.82
2022-11-26T23:42:15.261Z,6.81
2022-11-26T23:47:17.140Z,6.82
2022-11-26T23:52:18.980Z,6.81
2022-11-26T23:57:20.956Z,6.78
